Padre Island National Seasho, Texas
Current Conditions -  °F | °C
As of 9:56 AM on Thursday 29 Jan 2015 (Local Time) from KNGP Reporting Station
Scattered Clouds Scattered Clouds  
Wind Chill: 68°   Ceiling: Unl
Heat Index: 68°   Visibility: 10mi
Dew Point: 63°   Wind: 12mph
Humidity: 84%   Direction: 170°S
Pressure: 30.22"   Gusts: NA
Location:  27.6599°N, 97.2972°W
Report Text: KNGP 291556Z 17010KT 10SM FEW005 SCT250 20/17 A3022 RMK AO2 SLP234 T02000172 $
Loading
Personal Weather Stations






























Interactive Weather Map New forecast layout! Learn more

10-Day Weather Forecast

Advertisements
Track Severe Weather on mobile